sensor_id;sensor_type;location;lat;lon;timestamp;P1;durP1;ratioP1;P2;durP2;ratioP2
23155;SDS011;11746;50.876;4.246;2022-08-01T00:02:15;4.85;;;1.50;;
23155;SDS011;11746;50.876;4.246;2022-08-01T00:04:41;5.15;;;1.85;;
23155;SDS011;11746;50.876;4.246;2022-08-01T00:07:09;3.92;;;1.88;;
23155;SDS011;11746;50.876;4.246;2022-08-01T00:09:35;3.47;;;1.60;;
23155;SDS011;11746;50.876;4.246;2022-08-01T00:12:01;5.25;;;1.70;;
23155;SDS011;11746;50.876;4.246;2022-08-01T00:14:32;2.85;;;1.98;;
23155;SDS011;11746;50.876;4.246;2022-08-01T00:17:00;7.32;;;2.90;;
23155;SDS011;11746;50.876;4.246;2022-08-01T00:19:29;5.95;;;2.70;;
23155;SDS011;11746;50.876;4.246;2022-08-01T00:21:55;5.05;;;2.88;;
23155;SDS011;11746;50.876;4.246;2022-08-01T00:24:21;5.40;;;2.85;;
23155;SDS011;11746;50.876;4.246;2022-08-01T00:26:48;3.65;;;2.60;;
23155;SDS011;11746;50.876;4.246;2022-08-01T00:29:18;4.85;;;2.50;;
23155;SDS011;11746;50.876;4.246;2022-08-01T00:31:44;9.40;;;2.42;;
23155;SDS011;11746;50.876;4.246;2022-08-01T00:34:10;5.53;;;2.65;;
23155;SDS011;11746;50.876;4.246;2022-08-01T00:36:37;4.43;;;2.42;;
23155;SDS011;11746;50.876;4.246;2022-08-01T00:39:02;6.82;;;2.40;;
23155;SDS011;11746;50.876;4.246;2022-08-01T00:41:31;5.47;;;2.50;;
23155;SDS011;11746;50.876;4.246;2022-08-01T00:43:57;5.78;;;2.50;;
23155;SDS011;11746;50.876;4.246;2022-08-01T00:46:22;6.57;;;2.42;;
23155;SDS011;11746;50.876;4.246;2022-08-01T00:48:48;6.20;;;2.88;;
23155;SDS011;11746;50.876;4.246;2022-08-01T00:51:16;6.32;;;2.78;;
23155;SDS011;11746;50.876;4.246;2022-08-01T00:53:43;4.53;;;3.15;;
23155;SDS011;11746;50.876;4.246;2022-08-01T00:56:13;4.50;;;3.33;;
23155;SDS011;11746;50.876;4.246;2022-08-01T00:58:40;6.68;;;4.00;;
23155;SDS011;11746;50.876;4.246;2022-08-01T01:01:05;5.70;;;3.70;;
23155;SDS011;11746;50.876;4.246;2022-08-01T01:03:34;6.63;;;4.05;;
23155;SDS011;11746;50.876;4.246;2022-08-01T01:09:31;9.15;;;4.28;;
23155;SDS011;11746;50.876;4.246;2022-08-01T01:11:48;8.20;;;3.78;;
23155;SDS011;11746;50.876;4.246;2022-08-01T01:14:41;5.43;;;4.05;;
23155;SDS011;11746;50.876;4.246;2022-08-01T01:17:17;9.60;;;5.35;;
23155;SDS011;11746;50.876;4.246;2022-08-01T01:19:47;10.82;;;6.18;;
23155;SDS011;11746;50.876;4.246;2022-08-01T01:22:21;11.65;;;6.68;;
23155;SDS011;11746;50.876;4.246;2022-08-01T01:30:55;15.82;;;9.15;;
23155;SDS011;11746;50.876;4.246;2022-08-01T01:33:25;18.38;;;9.88;;
23155;SDS011;11746;50.876;4.246;2022-08-01T01:36:01;18.63;;;9.20;;
23155;SDS011;11746;50.876;4.246;2022-08-01T01:38:33;18.13;;;10.10;;
23155;SDS011;11746;50.876;4.246;2022-08-01T01:41:03;19.70;;;9.85;;
23155;SDS011;11746;50.876;4.246;2022-08-01T01:43:30;18.48;;;9.65;;
23155;SDS011;11746;50.876;4.246;2022-08-01T01:46:00;20.10;;;10.30;;
23155;SDS011;11746;50.876;4.246;2022-08-01T01:48:27;17.77;;;8.77;;
23155;SDS011;11746;50.876;4.246;2022-08-01T01:50:54;18.55;;;8.90;;
23155;SDS011;11746;50.876;4.246;2022-08-01T01:53:22;15.55;;;9.15;;
23155;SDS011;11746;50.876;4.246;2022-08-01T01:55:50;14.60;;;7.88;;
23155;SDS011;11746;50.876;4.246;2022-08-01T01:58:20;12.82;;;7.78;;
23155;SDS011;11746;50.876;4.246;2022-08-01T02:00:48;14.80;;;8.10;;
23155;SDS011;11746;50.876;4.246;2022-08-01T02:03:18;15.15;;;6.97;;
23155;SDS011;11746;50.876;4.246;2022-08-01T02:05:45;13.02;;;7.43;;
23155;SDS011;11746;50.876;4.246;2022-08-01T02:08:14;15.80;;;7.72;;
23155;SDS011;11746;50.876;4.246;2022-08-01T02:10:41;15.70;;;7.72;;
23155;SDS011;11746;50.876;4.246;2022-08-01T02:13:34;16.70;;;9.30;;
23155;SDS011;11746;50.876;4.246;2022-08-01T02:16:03;17.00;;;7.47;;
23155;SDS011;11746;50.876;4.246;2022-08-01T02:18:33;17.70;;;9.07;;
23155;SDS011;11746;50.876;4.246;2022-08-01T02:21:00;15.00;;;8.13;;
23155;SDS011;11746;50.876;4.246;2022-08-01T02:23:34;14.10;;;8.32;;
23155;SDS011;11746;50.876;4.246;2022-08-01T02:26:03;17.92;;;8.85;;
23155;SDS011;11746;50.876;4.246;2022-08-01T02:28:47;16.75;;;8.68;;
23155;SDS011;11746;50.876;4.246;2022-08-01T02:31:19;16.55;;;8.65;;
23155;SDS011;11746;50.876;4.246;2022-08-01T02:33:49;13.38;;;8.40;;
23155;SDS011;11746;50.876;4.246;2022-08-01T02:36:24;17.95;;;8.43;;
23155;SDS011;11746;50.876;4.246;2022-08-01T02:38:55;19.23;;;9.13;;
23155;SDS011;11746;50.876;4.246;2022-08-01T02:41:26;13.98;;;8.20;;
23155;SDS011;11746;50.876;4.246;2022-08-01T02:43:53;19.30;;;8.48;;
23155;SDS011;11746;50.876;4.246;2022-08-01T02:46:28;15.82;;;8.00;;
23155;SDS011;11746;50.876;4.246;2022-08-01T02:49:00;15.27;;;8.25;;
23155;SDS011;11746;50.876;4.246;2022-08-01T02:51:32;14.23;;;8.15;;
23155;SDS011;11746;50.876;4.246;2022-08-01T02:54:01;15.25;;;7.72;;
23155;SDS011;11746;50.876;4.246;2022-08-01T02:56:29;14.27;;;7.68;;
23155;SDS011;11746;50.876;4.246;2022-08-01T02:59:04;14.40;;;7.28;;
23155;SDS011;11746;50.876;4.246;2022-08-01T03:01:34;15.90;;;6.97;;
23155;SDS011;11746;50.876;4.246;2022-08-01T03:04:03;12.38;;;7.53;;
23155;SDS011;11746;50.876;4.246;2022-08-01T03:06:30;13.80;;;7.45;;
23155;SDS011;11746;50.876;4.246;2022-08-01T03:08:57;18.85;;;10.30;;
23155;SDS011;11746;50.876;4.246;2022-08-01T03:11:30;19.30;;;10.20;;
23155;SDS011;11746;50.876;4.246;2022-08-01T03:13:59;18.20;;;10.05;;
23155;SDS011;11746;50.876;4.246;2022-08-01T03:16:29;17.67;;;10.13;;
23155;SDS011;11746;50.876;4.246;2022-08-01T03:18:56;20.08;;;10.98;;
23155;SDS011;11746;50.876;4.246;2022-08-01T03:21:26;17.42;;;10.20;;
23155;SDS011;11746;50.876;4.246;2022-08-01T03:23:56;16.58;;;9.88;;
23155;SDS011;11746;50.876;4.246;2022-08-01T03:26:26;17.88;;;11.02;;
23155;SDS011;11746;50.876;4.246;2022-08-01T03:28:55;17.27;;;11.20;;
23155;SDS011;11746;50.876;4.246;2022-08-01T03:31:23;18.77;;;12.25;;
23155;SDS011;11746;50.876;4.246;2022-08-01T03:33:51;18.63;;;12.52;;
23155;SDS011;11746;50.876;4.246;2022-08-01T03:36:17;20.20;;;13.48;;
23155;SDS011;11746;50.876;4.246;2022-08-01T03:38:48;20.65;;;13.35;;
23155;SDS011;11746;50.876;4.246;2022-08-01T03:41:18;22.48;;;13.65;;
23155;SDS011;11746;50.876;4.246;2022-08-01T03:43:46;17.65;;;13.35;;
23155;SDS011;11746;50.876;4.246;2022-08-01T03:46:54;21.87;;;13.67;;
23155;SDS011;11746;50.876;4.246;2022-08-01T03:49:31;24.58;;;14.52;;
23155;SDS011;11746;50.876;4.246;2022-08-01T03:52:03;22.45;;;14.25;;
23155;SDS011;11746;50.876;4.246;2022-08-01T03:54:34;21.40;;;13.40;;
23155;SDS011;11746;50.876;4.246;2022-08-01T03:57:10;20.83;;;14.05;;
23155;SDS011;11746;50.876;4.246;2022-08-01T03:59:39;21.92;;;14.65;;
23155;SDS011;11746;50.876;4.246;2022-08-01T04:02:06;22.35;;;14.23;;
23155;SDS011;11746;50.876;4.246;2022-08-01T04:04:33;18.20;;;13.82;;
23155;SDS011;11746;50.876;4.246;2022-08-01T04:06:59;20.73;;;13.50;;
23155;SDS011;11746;50.876;4.246;2022-08-01T04:09:33;18.13;;;12.02;;
23155;SDS011;11746;50.876;4.246;2022-08-01T04:11:59;18.38;;;11.88;;
23155;SDS011;11746;50.876;4.246;2022-08-01T04:14:27;14.13;;;11.10;;
23155;SDS011;11746;50.876;4.246;2022-08-01T04:16:53;15.20;;;11.05;;
23155;SDS011;11746;50.876;4.246;2022-08-01T04:19:19;16.17;;;11.65;;
23155;SDS011;11746;50.876;4.246;2022-08-01T04:21:45;17.88;;;11.73;;
23155;SDS011;11746;50.876;4.246;2022-08-01T04:24:12;17.08;;;11.80;;
23155;SDS011;11746;50.876;4.246;2022-08-01T04:26:44;16.20;;;11.63;;
23155;SDS011;11746;50.876;4.246;2022-08-01T04:29:15;19.52;;;12.50;;
23155;SDS011;11746;50.876;4.246;2022-08-01T04:31:43;19.15;;;12.20;;
23155;SDS011;11746;50.876;4.246;2022-08-01T04:34:12;20.88;;;13.00;;
23155;SDS011;11746;50.876;4.246;2022-08-01T04:36:47;20.42;;;13.13;;
23155;SDS011;11746;50.876;4.246;2022-08-01T04:39:14;20.98;;;12.20;;
23155;SDS011;11746;50.876;4.246;2022-08-01T04:41:44;19.05;;;11.82;;
23155;SDS011;11746;50.876;4.246;2022-08-01T04:44:12;16.98;;;11.63;;
23155;SDS011;11746;50.876;4.246;2022-08-01T04:46:41;17.38;;;12.10;;
23155;SDS011;11746;50.876;4.246;2022-08-01T04:49:09;21.88;;;12.05;;
23155;SDS011;11746;50.876;4.246;2022-08-01T04:51:36;19.33;;;12.27;;
23155;SDS011;11746;50.876;4.246;2022-08-01T04:54:18;21.15;;;11.50;;
23155;SDS011;11746;50.876;4.246;2022-08-01T04:56:46;17.30;;;10.82;;
23155;SDS011;11746;50.876;4.246;2022-08-01T04:59:15;18.40;;;10.40;;
23155;SDS011;11746;50.876;4.246;2022-08-01T05:02:01;14.95;;;9.68;;
23155;SDS011;11746;50.876;4.246;2022-08-01T05:04:27;19.55;;;10.70;;
23155;SDS011;11746;50.876;4.246;2022-08-01T05:06:52;15.45;;;9.35;;
23155;SDS011;11746;50.876;4.246;2022-08-01T05:09:18;15.45;;;9.07;;
23155;SDS011;11746;50.876;4.246;2022-08-01T05:11:45;14.27;;;9.35;;
23155;SDS011;11746;50.876;4.246;2022-08-01T05:14:13;11.90;;;8.15;;
23155;SDS011;11746;50.876;4.246;2022-08-01T05:16:44;12.95;;;8.52;;
23155;SDS011;11746;50.876;4.246;2022-08-01T05:19:10;13.07;;;7.88;;
23155;SDS011;11746;50.876;4.246;2022-08-01T05:21:37;15.48;;;8.23;;
23155;SDS011;11746;50.876;4.246;2022-08-01T05:24:05;13.90;;;7.82;;
23155;SDS011;11746;50.876;4.246;2022-08-01T05:26:34;12.88;;;7.50;;
23155;SDS011;11746;50.876;4.246;2022-08-01T05:29:00;14.60;;;7.78;;
23155;SDS011;11746;50.876;4.246;2022-08-01T05:31:26;14.85;;;7.35;;
23155;SDS011;11746;50.876;4.246;2022-08-01T05:33:56;13.25;;;7.80;;
23155;SDS011;11746;50.876;4.246;2022-08-01T05:36:24;12.32;;;7.55;;
23155;SDS011;11746;50.876;4.246;2022-08-01T05:38:49;14.73;;;7.55;;
23155;SDS011;11746;50.876;4.246;2022-08-01T05:41:15;12.13;;;7.88;;
23155;SDS011;11746;50.876;4.246;2022-08-01T05:43:43;10.18;;;7.18;;
23155;SDS011;11746;50.876;4.246;2022-08-01T05:46:11;11.93;;;7.53;;
23155;SDS011;11746;50.876;4.246;2022-08-01T05:48:37;14.23;;;8.13;;
23155;SDS011;11746;50.876;4.246;2022-08-01T05:51:05;11.57;;;7.82;;
23155;SDS011;11746;50.876;4.246;2022-08-01T05:53:33;10.45;;;7.65;;
23155;SDS011;11746;50.876;4.246;2022-08-01T05:56:01;13.15;;;8.35;;
23155;SDS011;11746;50.876;4.246;2022-08-01T05:58:29;11.63;;;7.78;;
23155;SDS011;11746;50.876;4.246;2022-08-01T06:00:56;13.63;;;7.82;;
23155;SDS011;11746;50.876;4.246;2022-08-01T06:03:25;10.77;;;7.40;;
23155;SDS011;11746;50.876;4.246;2022-08-01T06:05:51;11.30;;;7.25;;
23155;SDS011;11746;50.876;4.246;2022-08-01T06:08:20;11.95;;;7.25;;
23155;SDS011;11746;50.876;4.246;2022-08-01T06:10:46;11.35;;;6.82;;
23155;SDS011;11746;50.876;4.246;2022-08-01T06:13:13;11.48;;;6.97;;
23155;SDS011;11746;50.876;4.246;2022-08-01T06:15:41;9.82;;;6.40;;
23155;SDS011;11746;50.876;4.246;2022-08-01T06:18:09;11.25;;;6.30;;
23155;SDS011;11746;50.876;4.246;2022-08-01T06:20:35;10.23;;;5.93;;
23155;SDS011;11746;50.876;4.246;2022-08-01T06:23:01;8.07;;;5.50;;
23155;SDS011;11746;50.876;4.246;2022-08-01T06:25:31;9.52;;;5.50;;
23155;SDS011;11746;50.876;4.246;2022-08-01T06:28:02;9.32;;;5.68;;
23155;SDS011;11746;50.876;4.246;2022-08-01T06:30:28;7.97;;;4.55;;
23155;SDS011;11746;50.876;4.246;2022-08-01T06:32:58;7.18;;;4.60;;
23155;SDS011;11746;50.876;4.246;2022-08-01T06:35:25;5.47;;;3.85;;
23155;SDS011;11746;50.876;4.246;2022-08-01T06:37:52;6.40;;;3.60;;
23155;SDS011;11746;50.876;4.246;2022-08-01T06:40:19;6.15;;;3.10;;
23155;SDS011;11746;50.876;4.246;2022-08-01T06:42:48;5.15;;;3.03;;
23155;SDS011;11746;50.876;4.246;2022-08-01T06:45:14;5.38;;;3.22;;
23155;SDS011;11746;50.876;4.246;2022-08-01T06:47:41;5.22;;;3.10;;
23155;SDS011;11746;50.876;4.246;2022-08-01T06:50:10;5.82;;;3.28;;
23155;SDS011;11746;50.876;4.246;2022-08-01T06:52:37;5.68;;;3.47;;
23155;SDS011;11746;50.876;4.246;2022-08-01T06:55:04;5.75;;;3.35;;
23155;SDS011;11746;50.876;4.246;2022-08-01T06:57:32;4.78;;;2.80;;
23155;SDS011;11746;50.876;4.246;2022-08-01T07:00:03;5.40;;;2.60;;
23155;SDS011;11746;50.876;4.246;2022-08-01T07:02:35;4.47;;;2.20;;
23155;SDS011;11746;50.876;4.246;2022-08-01T07:05:04;2.72;;;2.03;;
23155;SDS011;11746;50.876;4.246;2022-08-01T07:07:34;3.03;;;2.05;;
23155;SDS011;11746;50.876;4.246;2022-08-01T07:09:59;7.70;;;2.65;;
23155;SDS011;11746;50.876;4.246;2022-08-01T07:12:25;2.03;;;1.73;;
23155;SDS011;11746;50.876;4.246;2022-08-01T07:14:53;2.35;;;2.00;;
23155;SDS011;11746;50.876;4.246;2022-08-01T07:17:21;5.82;;;2.30;;
23155;SDS011;11746;50.876;4.246;2022-08-01T07:19:47;3.15;;;2.22;;
23155;SDS011;11746;50.876;4.246;2022-08-01T07:22:13;2.70;;;2.30;;
23155;SDS011;11746;50.876;4.246;2022-08-01T07:24:41;3.63;;;2.42;;
23155;SDS011;11746;50.876;4.246;2022-08-01T07:27:07;6.85;;;3.63;;
23155;SDS011;11746;50.876;4.246;2022-08-01T07:29:36;4.68;;;2.40;;
23155;SDS011;11746;50.876;4.246;2022-08-01T07:32:02;4.95;;;2.60;;
23155;SDS011;11746;50.876;4.246;2022-08-01T07:34:31;4.43;;;2.22;;
23155;SDS011;11746;50.876;4.246;2022-08-01T07:36:57;3.53;;;1.90;;
23155;SDS011;11746;50.876;4.246;2022-08-01T07:39:24;5.60;;;2.00;;
23155;SDS011;11746;50.876;4.246;2022-08-01T07:41:52;2.53;;;2.03;;
23155;SDS011;11746;50.876;4.246;2022-08-01T07:44:20;3.95;;;2.00;;
23155;SDS011;11746;50.876;4.246;2022-08-01T07:46:47;6.30;;;2.92;;
23155;SDS011;11746;50.876;4.246;2022-08-01T07:49:13;4.00;;;2.10;;
23155;SDS011;11746;50.876;4.246;2022-08-01T07:51:38;4.57;;;2.30;;
23155;SDS011;11746;50.876;4.246;2022-08-01T07:54:06;2.90;;;2.10;;
23155;SDS011;11746;50.876;4.246;2022-08-01T07:56:32;3.15;;;2.45;;
23155;SDS011;11746;50.876;4.246;2022-08-01T07:58:58;4.18;;;2.70;;
23155;SDS011;11746;50.876;4.246;2022-08-01T08:01:23;4.97;;;3.08;;
23155;SDS011;11746;50.876;4.246;2022-08-01T08:03:50;7.80;;;5.28;;
23155;SDS011;11746;50.876;4.246;2022-08-01T08:06:18;3.88;;;2.63;;
23155;SDS011;11746;50.876;4.246;2022-08-01T08:08:44;5.68;;;2.25;;
23155;SDS011;11746;50.876;4.246;2022-08-01T08:11:10;4.57;;;2.63;;
23155;SDS011;11746;50.876;4.246;2022-08-01T08:13:36;3.05;;;2.20;;
23155;SDS011;11746;50.876;4.246;2022-08-01T08:16:06;3.30;;;2.50;;
23155;SDS011;11746;50.876;4.246;2022-08-01T08:18:32;3.30;;;2.03;;
23155;SDS011;11746;50.876;4.246;2022-08-01T08:20:58;4.82;;;2.45;;
23155;SDS011;11746;50.876;4.246;2022-08-01T08:23:24;4.05;;;2.50;;
23155;SDS011;11746;50.876;4.246;2022-08-01T08:26:08;3.53;;;2.42;;
23155;SDS011;11746;50.876;4.246;2022-08-01T08:28:34;3.03;;;2.42;;
23155;SDS011;11746;50.876;4.246;2022-08-01T08:30:59;3.92;;;2.30;;
23155;SDS011;11746;50.876;4.246;2022-08-01T08:33:25;3.63;;;2.83;;
23155;SDS011;11746;50.876;4.246;2022-08-01T08:35:50;4.63;;;2.30;;
23155;SDS011;11746;50.876;4.246;2022-08-01T08:38:19;3.88;;;2.20;;
23155;SDS011;11746;50.876;4.246;2022-08-01T08:40:47;3.80;;;2.45;;
23155;SDS011;11746;50.876;4.246;2022-08-01T08:43:13;2.65;;;2.28;;
23155;SDS011;11746;50.876;4.246;2022-08-01T08:45:43;2.70;;;1.88;;
23155;SDS011;11746;50.876;4.246;2022-08-01T08:48:10;3.65;;;1.63;;
23155;SDS011;11746;50.876;4.246;2022-08-01T08:50:40;3.60;;;1.67;;
23155;SDS011;11746;50.876;4.246;2022-08-01T08:53:08;2.35;;;1.45;;
23155;SDS011;11746;50.876;4.246;2022-08-01T08:55:35;4.72;;;1.60;;
23155;SDS011;11746;50.876;4.246;2022-08-01T08:58:03;2.35;;;1.25;;
23155;SDS011;11746;50.876;4.246;2022-08-01T09:00:31;4.30;;;1.30;;
23155;SDS011;11746;50.876;4.246;2022-08-01T09:02:57;1.80;;;1.10;;
23155;SDS011;11746;50.876;4.246;2022-08-01T09:05:28;3.13;;;1.23;;
23155;SDS011;11746;50.876;4.246;2022-08-01T09:07:59;2.20;;;0.90;;
23155;SDS011;11746;50.876;4.246;2022-08-01T09:10:33;2.53;;;1.13;;
23155;SDS011;11746;50.876;4.246;2022-08-01T09:15:41;4.97;;;1.13;;
23155;SDS011;11746;50.876;4.246;2022-08-01T09:26:04;5.30;;;1.00;;
23155;SDS011;11746;50.876;4.246;2022-08-01T09:28:31;0.98;;;0.60;;
23155;SDS011;11746;50.876;4.246;2022-08-01T09:31:09;2.47;;;0.80;;
23155;SDS011;11746;50.876;4.246;2022-08-01T09:33:47;1.23;;;0.75;;
23155;SDS011;11746;50.876;4.246;2022-08-01T09:36:14;1.08;;;0.70;;
23155;SDS011;11746;50.876;4.246;2022-08-01T09:38:40;1.77;;;0.90;;
23155;SDS011;11746;50.876;4.246;2022-08-01T09:41:05;2.05;;;0.80;;
23155;SDS011;11746;50.876;4.246;2022-08-01T09:43:33;2.35;;;0.82;;
23155;SDS011;11746;50.876;4.246;2022-08-01T09:45:59;1.40;;;0.82;;
23155;SDS011;11746;50.876;4.246;2022-08-01T09:48:29;2.10;;;0.77;;
23155;SDS011;11746;50.876;4.246;2022-08-01T09:50:58;1.70;;;0.98;;
23155;SDS011;11746;50.876;4.246;2022-08-01T09:53:39;4.88;;;0.70;;
23155;SDS011;11746;50.876;4.246;2022-08-01T09:56:11;1.60;;;0.90;;
23155;SDS011;11746;50.876;4.246;2022-08-01T10:01:26;1.67;;;0.70;;
23155;SDS011;11746;50.876;4.246;2022-08-01T10:04:06;1.17;;;0.60;;
23155;SDS011;11746;50.876;4.246;2022-08-01T10:06:37;5.18;;;0.88;;
23155;SDS011;11746;50.876;4.246;2022-08-01T10:09:10;1.50;;;0.70;;
23155;SDS011;11746;50.876;4.246;2022-08-01T10:11:39;2.08;;;0.60;;
23155;SDS011;11746;50.876;4.246;2022-08-01T10:14:07;2.03;;;0.70;;
23155;SDS011;11746;50.876;4.246;2022-08-01T10:16:38;1.70;;;0.70;;
23155;SDS011;11746;50.876;4.246;2022-08-01T10:19:06;0.85;;;0.50;;
23155;SDS011;11746;50.876;4.246;2022-08-01T10:21:32;1.05;;;0.50;;
23155;SDS011;11746;50.876;4.246;2022-08-01T10:23:59;0.73;;;0.50;;
23155;SDS011;11746;50.876;4.246;2022-08-01T10:26:32;2.63;;;0.73;;
23155;SDS011;11746;50.876;4.246;2022-08-01T10:28:59;1.40;;;0.50;;
23155;SDS011;11746;50.876;4.246;2022-08-01T10:31:28;1.15;;;0.50;;
23155;SDS011;11746;50.876;4.246;2022-08-01T10:33:57;1.55;;;0.50;;
23155;SDS011;11746;50.876;4.246;2022-08-01T10:36:26;0.95;;;0.63;;
23155;SDS011;11746;50.876;4.246;2022-08-01T10:38:56;1.75;;;0.70;;
23155;SDS011;11746;50.876;4.246;2022-08-01T10:41:22;1.67;;;0.60;;
23155;SDS011;11746;50.876;4.246;2022-08-01T10:43:50;1.33;;;0.60;;
23155;SDS011;11746;50.876;4.246;2022-08-01T10:46:19;1.13;;;0.40;;
23155;SDS011;11746;50.876;4.246;2022-08-01T10:48:55;5.57;;;1.08;;
23155;SDS011;11746;50.876;4.246;2022-08-01T10:51:25;2.80;;;0.60;;
23155;SDS011;11746;50.876;4.246;2022-08-01T10:53:55;1.65;;;0.80;;
23155;SDS011;11746;50.876;4.246;2022-08-01T10:56:26;2.33;;;0.70;;
23155;SDS011;11746;50.876;4.246;2022-08-01T10:59:14;1.70;;;0.55;;
23155;SDS011;11746;50.876;4.246;2022-08-01T11:02:05;2.58;;;0.60;;
23155;SDS011;11746;50.876;4.246;2022-08-01T11:07:13;1.67;;;0.57;;
23155;SDS011;11746;50.876;4.246;2022-08-01T11:09:47;0.68;;;0.50;;
23155;SDS011;11746;50.876;4.246;2022-08-01T11:12:37;1.67;;;0.50;;
23155;SDS011;11746;50.876;4.246;2022-08-01T11:17:33;0.40;;;0.30;;
23155;SDS011;11746;50.876;4.246;2022-08-01T11:20:07;1.77;;;0.98;;
23155;SDS011;11746;50.876;4.246;2022-08-01T11:23:18;0.82;;;0.50;;
23155;SDS011;11746;50.876;4.246;2022-08-01T11:28:22;1.58;;;0.80;;
23155;SDS011;11746;50.876;4.246;2022-08-01T11:30:54;1.17;;;0.70;;
23155;SDS011;11746;50.876;4.246;2022-08-01T11:38:35;2.88;;;0.90;;
23155;SDS011;11746;50.876;4.246;2022-08-01T11:44:03;1.20;;;0.60;;
23155;SDS011;11746;50.876;4.246;2022-08-01T11:49:30;2.15;;;0.70;;
23155;SDS011;11746;50.876;4.246;2022-08-01T11:52:27;2.17;;;0.70;;
23155;SDS011;11746;50.876;4.246;2022-08-01T11:55:03;1.92;;;0.60;;
23155;SDS011;11746;50.876;4.246;2022-08-01T11:57:32;1.95;;;0.55;;
23155;SDS011;11746;50.876;4.246;2022-08-01T12:00:11;1.77;;;0.63;;
23155;SDS011;11746;50.876;4.246;2022-08-01T12:02:40;1.98;;;0.50;;
23155;SDS011;11746;50.876;4.246;2022-08-01T12:05:06;5.90;;;1.05;;
23155;SDS011;11746;50.876;4.246;2022-08-01T12:07:35;1.33;;;0.60;;
23155;SDS011;11746;50.876;4.246;2022-08-01T12:10:09;1.40;;;0.68;;
23155;SDS011;11746;50.876;4.246;2022-08-01T12:12:36;3.17;;;0.68;;
23155;SDS011;11746;50.876;4.246;2022-08-01T12:15:07;16.73;;;2.08;;
23155;SDS011;11746;50.876;4.246;2022-08-01T12:17:35;1.75;;;1.20;;
23155;SDS011;11746;50.876;4.246;2022-08-01T12:20:09;2.42;;;1.05;;
23155;SDS011;11746;50.876;4.246;2022-08-01T12:22:37;3.05;;;0.90;;
23155;SDS011;11746;50.876;4.246;2022-08-01T12:25:13;1.35;;;0.60;;
23155;SDS011;11746;50.876;4.246;2022-08-01T12:27:41;3.28;;;1.10;;
23155;SDS011;11746;50.876;4.246;2022-08-01T12:30:08;1.30;;;0.60;;
23155;SDS011;11746;50.876;4.246;2022-08-01T12:32:42;3.92;;;1.13;;
23155;SDS011;11746;50.876;4.246;2022-08-01T12:35:13;1.73;;;0.90;;
23155;SDS011;11746;50.876;4.246;2022-08-01T12:37:45;2.95;;;1.02;;
23155;SDS011;11746;50.876;4.246;2022-08-01T12:40:16;2.08;;;0.75;;
23155;SDS011;11746;50.876;4.246;2022-08-01T12:42:46;1.88;;;1.00;;
23155;SDS011;11746;50.876;4.246;2022-08-01T12:45:21;1.67;;;0.60;;
23155;SDS011;11746;50.876;4.246;2022-08-01T12:47:54;2.55;;;0.65;;
23155;SDS011;11746;50.876;4.246;2022-08-01T12:50:23;1.65;;;0.63;;
23155;SDS011;11746;50.876;4.246;2022-08-01T12:52:54;2.50;;;1.08;;
23155;SDS011;11746;50.876;4.246;2022-08-01T12:55:22;4.80;;;1.95;;
23155;SDS011;11746;50.876;4.246;2022-08-01T12:58:03;2.53;;;0.73;;
23155;SDS011;11746;50.876;4.246;2022-08-01T13:00:32;1.90;;;0.73;;
23155;SDS011;11746;50.876;4.246;2022-08-01T13:03:02;1.15;;;0.75;;
23155;SDS011;11746;50.876;4.246;2022-08-01T13:08:15;1.80;;;1.03;;
23155;SDS011;11746;50.876;4.246;2022-08-01T13:10:46;4.13;;;1.00;;
23155;SDS011;11746;50.876;4.246;2022-08-01T13:13:14;27.08;;;1.95;;
23155;SDS011;11746;50.876;4.246;2022-08-01T13:15:45;2.00;;;0.73;;
23155;SDS011;11746;50.876;4.246;2022-08-01T13:18:32;1.77;;;0.88;;
23155;SDS011;11746;50.876;4.246;2022-08-01T13:21:15;1.80;;;1.02;;
23155;SDS011;11746;50.876;4.246;2022-08-01T13:24:04;6.93;;;1.75;;
23155;SDS011;11746;50.876;4.246;2022-08-01T13:26:50;2.25;;;0.90;;
23155;SDS011;11746;50.876;4.246;2022-08-01T13:29:32;2.10;;;0.80;;
23155;SDS011;11746;50.876;4.246;2022-08-01T13:32:17;0.70;;;0.52;;
23155;SDS011;11746;50.876;4.246;2022-08-01T13:34:46;3.60;;;1.30;;
23155;SDS011;11746;50.876;4.246;2022-08-01T13:37:21;0.80;;;0.60;;
23155;SDS011;11746;50.876;4.246;2022-08-01T13:39:49;2.42;;;0.73;;
23155;SDS011;11746;50.876;4.246;2022-08-01T13:42:15;2.65;;;1.00;;
23155;SDS011;11746;50.876;4.246;2022-08-01T13:44:43;2.70;;;0.73;;
23155;SDS011;11746;50.876;4.246;2022-08-01T13:47:12;3.50;;;0.80;;
23155;SDS011;11746;50.876;4.246;2022-08-01T13:49:41;1.45;;;0.75;;
23155;SDS011;11746;50.876;4.246;2022-08-01T13:52:09;3.22;;;0.90;;
23155;SDS011;11746;50.876;4.246;2022-08-01T13:54:35;5.13;;;1.00;;
23155;SDS011;11746;50.876;4.246;2022-08-01T13:57:02;1.67;;;0.70;;
23155;SDS011;11746;50.876;4.246;2022-08-01T13:59:30;1.80;;;0.80;;
23155;SDS011;11746;50.876;4.246;2022-08-01T14:01:56;2.42;;;0.70;;
23155;SDS011;11746;50.876;4.246;2022-08-01T14:04:24;2.05;;;0.90;;
23155;SDS011;11746;50.876;4.246;2022-08-01T14:06:50;2.50;;;0.75;;
23155;SDS011;11746;50.876;4.246;2022-08-01T14:09:16;1.70;;;0.85;;
23155;SDS011;11746;50.876;4.246;2022-08-01T14:11:44;3.70;;;1.00;;
23155;SDS011;11746;50.876;4.246;2022-08-01T14:14:10;1.88;;;0.70;;
23155;SDS011;11746;50.876;4.246;2022-08-01T14:16:36;2.97;;;0.70;;
23155;SDS011;11746;50.876;4.246;2022-08-01T14:19:02;2.67;;;0.60;;
23155;SDS011;11746;50.876;4.246;2022-08-01T14:21:31;3.83;;;0.73;;
23155;SDS011;11746;50.876;4.246;2022-08-01T14:23:56;1.77;;;0.80;;
23155;SDS011;11746;50.876;4.246;2022-08-01T14:26:22;2.55;;;0.90;;
23155;SDS011;11746;50.876;4.246;2022-08-01T14:28:48;66.05;;;5.07;;
23155;SDS011;11746;50.876;4.246;2022-08-01T14:31:14;2.60;;;1.00;;
23155;SDS011;11746;50.876;4.246;2022-08-01T14:33:43;4.50;;;0.75;;
23155;SDS011;11746;50.876;4.246;2022-08-01T14:36:08;1.35;;;0.70;;
23155;SDS011;11746;50.876;4.246;2022-08-01T14:38:34;4.07;;;1.02;;
23155;SDS011;11746;50.876;4.246;2022-08-01T14:41:00;2.65;;;0.80;;
23155;SDS011;11746;50.876;4.246;2022-08-01T14:43:28;1.88;;;0.80;;
23155;SDS011;11746;50.876;4.246;2022-08-01T14:45:53;2.35;;;0.80;;
23155;SDS011;11746;50.876;4.246;2022-08-01T14:48:19;2.30;;;0.90;;
23155;SDS011;11746;50.876;4.246;2022-08-01T14:50:45;2.63;;;0.93;;
23155;SDS011;11746;50.876;4.246;2022-08-01T14:53:13;2.13;;;0.70;;
23155;SDS011;11746;50.876;4.246;2022-08-01T14:55:39;1.67;;;0.90;;
23155;SDS011;11746;50.876;4.246;2022-08-01T14:58:10;2.58;;;1.20;;
23155;SDS011;11746;50.876;4.246;2022-08-01T15:00:35;2.08;;;0.80;;
23155;SDS011;11746;50.876;4.246;2022-08-01T15:03:08;20.13;;;1.83;;
23155;SDS011;11746;50.876;4.246;2022-08-01T15:05:34;1.38;;;0.60;;
23155;SDS011;11746;50.876;4.246;2022-08-01T15:08:05;1.92;;;0.90;;
23155;SDS011;11746;50.876;4.246;2022-08-01T15:10:31;2.97;;;1.00;;
23155;SDS011;11746;50.876;4.246;2022-08-01T15:12:58;1.95;;;1.25;;
23155;SDS011;11746;50.876;4.246;2022-08-01T15:15:25;5.43;;;1.00;;
23155;SDS011;11746;50.876;4.246;2022-08-01T15:17:52;1.50;;;1.00;;
23155;SDS011;11746;50.876;4.246;2022-08-01T15:20:18;2.10;;;0.90;;
23155;SDS011;11746;50.876;4.246;2022-08-01T15:22:44;1.67;;;1.13;;
23155;SDS011;11746;50.876;4.246;2022-08-01T15:25:10;2.47;;;1.10;;
23155;SDS011;11746;50.876;4.246;2022-08-01T15:27:36;2.40;;;0.88;;
23155;SDS011;11746;50.876;4.246;2022-08-01T15:30:02;1.98;;;0.80;;
23155;SDS011;11746;50.876;4.246;2022-08-01T15:32:31;2.35;;;0.85;;
23155;SDS011;11746;50.876;4.246;2022-08-01T15:34:58;2.75;;;0.80;;
23155;SDS011;11746;50.876;4.246;2022-08-01T15:37:29;2.10;;;0.90;;
23155;SDS011;11746;50.876;4.246;2022-08-01T15:39:56;1.90;;;1.45;;